sensor_id;sensor_type;location;lat;lon;timestamp;P1;durP1;ratioP1;P2;durP2;ratioP2
56752;SDS011;42627;42.646;23.642;2023-04-29T00:01:33;8.90;;;3.40;;
56752;SDS011;42627;42.646;23.642;2023-04-29T00:03:34;8.15;;;2.95;;
56752;SDS011;42627;42.646;23.642;2023-04-29T00:05:35;6.38;;;3.30;;
56752;SDS011;42627;42.646;23.642;2023-04-29T00:07:36;7.03;;;3.00;;
56752;SDS011;42627;42.646;23.642;2023-04-29T00:09:37;6.55;;;3.00;;
56752;SDS011;42627;42.646;23.642;2023-04-29T00:11:38;7.15;;;3.25;;
56752;SDS011;42627;42.646;23.642;2023-04-29T00:13:39;5.43;;;3.03;;
56752;SDS011;42627;42.646;23.642;2023-04-29T00:15:40;6.25;;;3.38;;
56752;SDS011;42627;42.646;23.642;2023-04-29T00:17:41;5.35;;;3.22;;
56752;SDS011;42627;42.646;23.642;2023-04-29T00:19:43;6.32;;;3.90;;
56752;SDS011;42627;42.646;23.642;2023-04-29T00:21:44;5.95;;;3.35;;
56752;SDS011;42627;42.646;23.642;2023-04-29T00:28:57;5.75;;;3.42;;
56752;SDS011;42627;42.646;23.642;2023-04-29T00:30:58;8.20;;;3.53;;
56752;SDS011;42627;42.646;23.642;2023-04-29T00:32:59;4.82;;;3.13;;
56752;SDS011;42627;42.646;23.642;2023-04-29T00:35:00;6.55;;;3.33;;
56752;SDS011;42627;42.646;23.642;2023-04-29T00:37:01;5.60;;;3.42;;
56752;SDS011;42627;42.646;23.642;2023-04-29T00:39:03;5.80;;;3.50;;
56752;SDS011;42627;42.646;23.642;2023-04-29T00:41:04;7.10;;;4.65;;
56752;SDS011;42627;42.646;23.642;2023-04-29T00:43:23;7.97;;;3.63;;
56752;SDS011;42627;42.646;23.642;2023-04-29T00:45:24;6.45;;;3.40;;
56752;SDS011;42627;42.646;23.642;2023-04-29T00:47:26;7.28;;;3.88;;
56752;SDS011;42627;42.646;23.642;2023-04-29T00:49:27;5.65;;;3.33;;
56752;SDS011;42627;42.646;23.642;2023-04-29T00:51:28;6.78;;;3.78;;
56752;SDS011;42627;42.646;23.642;2023-04-29T00:58:35;6.72;;;4.35;;
56752;SDS011;42627;42.646;23.642;2023-04-29T01:00:38;8.60;;;4.10;;
56752;SDS011;42627;42.646;23.642;2023-04-29T01:02:43;5.72;;;3.83;;
56752;SDS011;42627;42.646;23.642;2023-04-29T01:04:46;12.30;;;4.45;;
56752;SDS011;42627;42.646;23.642;2023-04-29T01:06:59;7.53;;;3.85;;
56752;SDS011;42627;42.646;23.642;2023-04-29T01:11:07;10.10;;;3.90;;
56752;SDS011;42627;42.646;23.642;2023-04-29T01:16:02;5.18;;;3.25;;
56752;SDS011;42627;42.646;23.642;2023-04-29T01:18:19;5.57;;;3.40;;
56752;SDS011;42627;42.646;23.642;2023-04-29T01:20:23;5.70;;;3.33;;
56752;SDS011;42627;42.646;23.642;2023-04-29T01:22:39;5.88;;;3.63;;
56752;SDS011;42627;42.646;23.642;2023-04-29T01:31:48;5.90;;;3.25;;
56752;SDS011;42627;42.646;23.642;2023-04-29T01:38:22;4.90;;;2.97;;
56752;SDS011;42627;42.646;23.642;2023-04-29T01:40:33;5.40;;;3.25;;
56752;SDS011;42627;42.646;23.642;2023-04-29T01:43:19;7.15;;;3.08;;
56752;SDS011;42627;42.646;23.642;2023-04-29T01:45:04;5.55;;;3.30;;
56752;SDS011;42627;42.646;23.642;2023-04-29T01:47:06;8.25;;;3.22;;
56752;SDS011;42627;42.646;23.642;2023-04-29T01:49:10;5.18;;;3.05;;
56752;SDS011;42627;42.646;23.642;2023-04-29T01:56:19;7.88;;;3.47;;
56752;SDS011;42627;42.646;23.642;2023-04-29T01:58:20;7.93;;;4.03;;
56752;SDS011;42627;42.646;23.642;2023-04-29T02:00:24;7.72;;;4.68;;
56752;SDS011;42627;42.646;23.642;2023-04-29T02:02:25;5.28;;;3.28;;
56752;SDS011;42627;42.646;23.642;2023-04-29T02:04:26;7.60;;;3.80;;
56752;SDS011;42627;42.646;23.642;2023-04-29T02:06:33;7.55;;;3.40;;
56752;SDS011;42627;42.646;23.642;2023-04-29T02:08:34;6.38;;;3.65;;
56752;SDS011;42627;42.646;23.642;2023-04-29T02:10:35;7.72;;;4.20;;
56752;SDS011;42627;42.646;23.642;2023-04-29T02:15:12;9.02;;;3.65;;
56752;SDS011;42627;42.646;23.642;2023-04-29T02:17:13;5.60;;;3.50;;
56752;SDS011;42627;42.646;23.642;2023-04-29T02:19:14;5.55;;;3.63;;
56752;SDS011;42627;42.646;23.642;2023-04-29T02:26:32;4.90;;;2.95;;
56752;SDS011;42627;42.646;23.642;2023-04-29T02:28:33;7.57;;;3.78;;
56752;SDS011;42627;42.646;23.642;2023-04-29T02:30:37;7.25;;;3.72;;
56752;SDS011;42627;42.646;23.642;2023-04-29T02:32:39;10.88;;;3.80;;
56752;SDS011;42627;42.646;23.642;2023-04-29T02:34:40;6.05;;;2.90;;
56752;SDS011;42627;42.646;23.642;2023-04-29T02:36:41;5.82;;;3.30;;
56752;SDS011;42627;42.646;23.642;2023-04-29T02:38:42;7.30;;;3.30;;
56752;SDS011;42627;42.646;23.642;2023-04-29T02:40:49;6.10;;;3.70;;
56752;SDS011;42627;42.646;23.642;2023-04-29T02:42:51;6.75;;;2.92;;
56752;SDS011;42627;42.646;23.642;2023-04-29T02:44:52;4.70;;;2.88;;
56752;SDS011;42627;42.646;23.642;2023-04-29T02:46:53;5.30;;;3.22;;
56752;SDS011;42627;42.646;23.642;2023-04-29T02:48:54;6.07;;;3.40;;
56752;SDS011;42627;42.646;23.642;2023-04-29T02:58:16;6.63;;;3.33;;
56752;SDS011;42627;42.646;23.642;2023-04-29T03:00:17;5.00;;;3.33;;
56752;SDS011;42627;42.646;23.642;2023-04-29T03:02:19;6.75;;;3.20;;
56752;SDS011;42627;42.646;23.642;2023-04-29T03:04:20;11.23;;;3.78;;
56752;SDS011;42627;42.646;23.642;2023-04-29T03:06:21;4.13;;;3.00;;
56752;SDS011;42627;42.646;23.642;2023-04-29T03:08:22;5.78;;;3.00;;
56752;SDS011;42627;42.646;23.642;2023-04-29T03:12:48;4.60;;;3.10;;
56752;SDS011;42627;42.646;23.642;2023-04-29T03:14:49;6.78;;;3.53;;
56752;SDS011;42627;42.646;23.642;2023-04-29T03:16:51;6.40;;;3.70;;
56752;SDS011;42627;42.646;23.642;2023-04-29T03:18:52;7.03;;;3.67;;
56752;SDS011;42627;42.646;23.642;2023-04-29T03:21:11;7.40;;;3.65;;
56752;SDS011;42627;42.646;23.642;2023-04-29T03:27:54;7.68;;;4.53;;
56752;SDS011;42627;42.646;23.642;2023-04-29T03:29:56;9.95;;;5.68;;
56752;SDS011;42627;42.646;23.642;2023-04-29T03:31:57;9.10;;;4.15;;
56752;SDS011;42627;42.646;23.642;2023-04-29T03:33:58;8.55;;;4.68;;
56752;SDS011;42627;42.646;23.642;2023-04-29T03:35:59;10.75;;;5.88;;
56752;SDS011;42627;42.646;23.642;2023-04-29T03:38:00;10.65;;;5.95;;
56752;SDS011;42627;42.646;23.642;2023-04-29T03:40:01;10.85;;;5.18;;
56752;SDS011;42627;42.646;23.642;2023-04-29T03:42:03;8.15;;;4.90;;
56752;SDS011;42627;42.646;23.642;2023-04-29T03:44:04;8.02;;;4.13;;
56752;SDS011;42627;42.646;23.642;2023-04-29T03:46:11;6.18;;;3.50;;
56752;SDS011;42627;42.646;23.642;2023-04-29T03:48:15;8.73;;;4.40;;
56752;SDS011;42627;42.646;23.642;2023-04-29T03:50:17;6.22;;;4.15;;
56752;SDS011;42627;42.646;23.642;2023-04-29T03:52:18;7.07;;;4.47;;
56752;SDS011;42627;42.646;23.642;2023-04-29T03:54:19;10.73;;;5.05;;
56752;SDS011;42627;42.646;23.642;2023-04-29T04:01:11;6.75;;;3.85;;
56752;SDS011;42627;42.646;23.642;2023-04-29T04:03:14;7.05;;;3.83;;
56752;SDS011;42627;42.646;23.642;2023-04-29T04:05:15;7.40;;;3.45;;
56752;SDS011;42627;42.646;23.642;2023-04-29T04:07:18;6.53;;;3.25;;
56752;SDS011;42627;42.646;23.642;2023-04-29T04:09:19;7.50;;;3.92;;
56752;SDS011;42627;42.646;23.642;2023-04-29T04:11:35;5.85;;;3.42;;
56752;SDS011;42627;42.646;23.642;2023-04-29T04:13:36;6.47;;;3.72;;
56752;SDS011;42627;42.646;23.642;2023-04-29T04:15:37;7.97;;;4.25;;
56752;SDS011;42627;42.646;23.642;2023-04-29T04:17:38;8.80;;;3.95;;
56752;SDS011;42627;42.646;23.642;2023-04-29T04:19:39;7.60;;;4.30;;
56752;SDS011;42627;42.646;23.642;2023-04-29T04:21:40;5.97;;;3.72;;
56752;SDS011;42627;42.646;23.642;2023-04-29T04:23:41;6.93;;;3.47;;
56752;SDS011;42627;42.646;23.642;2023-04-29T04:27:53;8.10;;;4.00;;
56752;SDS011;42627;42.646;23.642;2023-04-29T04:29:54;7.07;;;3.78;;
56752;SDS011;42627;42.646;23.642;2023-04-29T04:31:56;7.22;;;4.07;;
56752;SDS011;42627;42.646;23.642;2023-04-29T04:33:57;8.07;;;4.28;;
56752;SDS011;42627;42.646;23.642;2023-04-29T04:35:58;9.63;;;3.90;;
56752;SDS011;42627;42.646;23.642;2023-04-29T04:37:59;6.82;;;4.03;;
56752;SDS011;42627;42.646;23.642;2023-04-29T04:40:00;11.48;;;4.15;;
56752;SDS011;42627;42.646;23.642;2023-04-29T04:47:17;7.03;;;4.00;;
56752;SDS011;42627;42.646;23.642;2023-04-29T04:49:18;8.90;;;4.13;;
56752;SDS011;42627;42.646;23.642;2023-04-29T04:51:19;8.40;;;3.47;;
56752;SDS011;42627;42.646;23.642;2023-04-29T04:53:20;12.00;;;3.80;;
56752;SDS011;42627;42.646;23.642;2023-04-29T04:55:22;6.85;;;3.58;;
56752;SDS011;42627;42.646;23.642;2023-04-29T04:57:23;5.65;;;3.53;;
56752;SDS011;42627;42.646;23.642;2023-04-29T04:59:24;6.25;;;3.58;;
56752;SDS011;42627;42.646;23.642;2023-04-29T05:01:25;6.95;;;3.55;;
56752;SDS011;42627;42.646;23.642;2023-04-29T05:03:26;6.88;;;3.60;;
56752;SDS011;42627;42.646;23.642;2023-04-29T05:05:27;9.00;;;3.70;;
56752;SDS011;42627;42.646;23.642;2023-04-29T05:07:28;10.52;;;3.75;;
56752;SDS011;42627;42.646;23.642;2023-04-29T05:09:30;6.20;;;3.45;;
56752;SDS011;42627;42.646;23.642;2023-04-29T05:11:31;9.88;;;3.55;;
56752;SDS011;42627;42.646;23.642;2023-04-29T05:13:32;6.25;;;3.15;;
56752;SDS011;42627;42.646;23.642;2023-04-29T05:15:42;4.88;;;2.83;;
56752;SDS011;42627;42.646;23.642;2023-04-29T05:17:43;8.65;;;3.67;;
56752;SDS011;42627;42.646;23.642;2023-04-29T05:19:44;7.03;;;3.50;;
56752;SDS011;42627;42.646;23.642;2023-04-29T05:21:45;8.27;;;3.90;;
56752;SDS011;42627;42.646;23.642;2023-04-29T05:23:46;7.90;;;3.45;;
56752;SDS011;42627;42.646;23.642;2023-04-29T05:26:05;7.57;;;4.00;;
56752;SDS011;42627;42.646;23.642;2023-04-29T05:28:11;5.43;;;3.13;;
56752;SDS011;42627;42.646;23.642;2023-04-29T05:32:33;8.15;;;3.63;;
56752;SDS011;42627;42.646;23.642;2023-04-29T05:34:34;5.10;;;3.35;;
56752;SDS011;42627;42.646;23.642;2023-04-29T05:36:35;5.82;;;3.08;;
56752;SDS011;42627;42.646;23.642;2023-04-29T05:38:36;5.90;;;3.72;;
56752;SDS011;42627;42.646;23.642;2023-04-29T05:40:37;6.43;;;3.42;;
56752;SDS011;42627;42.646;23.642;2023-04-29T05:42:39;4.97;;;3.00;;
56752;SDS011;42627;42.646;23.642;2023-04-29T05:44:45;7.25;;;3.22;;
56752;SDS011;42627;42.646;23.642;2023-04-29T05:46:46;6.03;;;3.03;;
56752;SDS011;42627;42.646;23.642;2023-04-29T05:48:47;6.25;;;2.95;;
56752;SDS011;42627;42.646;23.642;2023-04-29T05:50:48;6.90;;;2.65;;
56752;SDS011;42627;42.646;23.642;2023-04-29T05:52:50;5.57;;;2.88;;
56752;SDS011;42627;42.646;23.642;2023-04-29T05:57:32;4.85;;;2.28;;
56752;SDS011;42627;42.646;23.642;2023-04-29T05:59:48;4.57;;;2.38;;
56752;SDS011;42627;42.646;23.642;2023-04-29T06:04:05;7.00;;;2.67;;
56752;SDS011;42627;42.646;23.642;2023-04-29T06:06:06;6.82;;;1.90;;
56752;SDS011;42627;42.646;23.642;2023-04-29T06:08:07;5.90;;;2.47;;
56752;SDS011;42627;42.646;23.642;2023-04-29T06:10:09;4.82;;;2.50;;
56752;SDS011;42627;42.646;23.642;2023-04-29T06:12:10;5.82;;;2.33;;
56752;SDS011;42627;42.646;23.642;2023-04-29T06:16:28;4.20;;;2.15;;
56752;SDS011;42627;42.646;23.642;2023-04-29T06:18:29;5.57;;;2.25;;
56752;SDS011;42627;42.646;23.642;2023-04-29T06:20:30;3.60;;;1.90;;
56752;SDS011;42627;42.646;23.642;2023-04-29T06:22:31;4.72;;;2.22;;
56752;SDS011;42627;42.646;23.642;2023-04-29T06:29:39;2.70;;;1.80;;
56752;SDS011;42627;42.646;23.642;2023-04-29T06:31:40;4.95;;;2.13;;
56752;SDS011;42627;42.646;23.642;2023-04-29T06:33:43;6.82;;;2.20;;
56752;SDS011;42627;42.646;23.642;2023-04-29T06:35:46;3.67;;;1.50;;
56752;SDS011;42627;42.646;23.642;2023-04-29T06:39:58;4.05;;;1.83;;
56752;SDS011;42627;42.646;23.642;2023-04-29T06:41:59;3.63;;;1.80;;
56752;SDS011;42627;42.646;23.642;2023-04-29T06:46:11;4.28;;;1.60;;
56752;SDS011;42627;42.646;23.642;2023-04-29T06:48:12;5.05;;;1.73;;
56752;SDS011;42627;42.646;23.642;2023-04-29T06:50:13;5.60;;;2.10;;
56752;SDS011;42627;42.646;23.642;2023-04-29T06:52:14;5.45;;;2.08;;
56752;SDS011;42627;42.646;23.642;2023-04-29T06:54:24;3.72;;;1.85;;
56752;SDS011;42627;42.646;23.642;2023-04-29T06:59:47;3.70;;;1.80;;
56752;SDS011;42627;42.646;23.642;2023-04-29T07:01:48;3.80;;;1.98;;
56752;SDS011;42627;42.646;23.642;2023-04-29T07:03:51;3.15;;;1.70;;
56752;SDS011;42627;42.646;23.642;2023-04-29T07:05:52;3.92;;;1.92;;
56752;SDS011;42627;42.646;23.642;2023-04-29T07:07:53;5.47;;;2.28;;
56752;SDS011;42627;42.646;23.642;2023-04-29T07:09:54;3.45;;;1.65;;
56752;SDS011;42627;42.646;23.642;2023-04-29T07:11:55;9.65;;;2.55;;
56752;SDS011;42627;42.646;23.642;2023-04-29T07:16:13;4.70;;;1.88;;
56752;SDS011;42627;42.646;23.642;2023-04-29T07:18:15;5.80;;;1.85;;
56752;SDS011;42627;42.646;23.642;2023-04-29T07:20:17;6.22;;;1.70;;
56752;SDS011;42627;42.646;23.642;2023-04-29T07:22:18;3.53;;;1.80;;
56752;SDS011;42627;42.646;23.642;2023-04-29T07:29:32;3.20;;;1.80;;
56752;SDS011;42627;42.646;23.642;2023-04-29T07:31:33;3.35;;;1.85;;
56752;SDS011;42627;42.646;23.642;2023-04-29T07:33:34;2.60;;;1.90;;
56752;SDS011;42627;42.646;23.642;2023-04-29T07:35:35;3.88;;;1.70;;
56752;SDS011;42627;42.646;23.642;2023-04-29T07:37:36;4.20;;;2.20;;
56752;SDS011;42627;42.646;23.642;2023-04-29T07:39:37;4.13;;;1.90;;
56752;SDS011;42627;42.646;23.642;2023-04-29T07:41:38;3.85;;;1.80;;
56752;SDS011;42627;42.646;23.642;2023-04-29T07:43:55;2.83;;;1.70;;
56752;SDS011;42627;42.646;23.642;2023-04-29T07:45:56;3.85;;;1.60;;
56752;SDS011;42627;42.646;23.642;2023-04-29T07:47:57;4.82;;;2.10;;
56752;SDS011;42627;42.646;23.642;2023-04-29T07:49:58;5.68;;;1.95;;
56752;SDS011;42627;42.646;23.642;2023-04-29T07:51:59;2.92;;;1.65;;
56752;SDS011;42627;42.646;23.642;2023-04-29T07:56:49;3.33;;;1.63;;
56752;SDS011;42627;42.646;23.642;2023-04-29T07:58:50;5.63;;;1.77;;
56752;SDS011;42627;42.646;23.642;2023-04-29T08:00:51;4.20;;;1.98;;
56752;SDS011;42627;42.646;23.642;2023-04-29T08:02:52;5.85;;;1.90;;
56752;SDS011;42627;42.646;23.642;2023-04-29T08:04:53;5.63;;;2.20;;
56752;SDS011;42627;42.646;23.642;2023-04-29T08:06:54;5.15;;;2.10;;
56752;SDS011;42627;42.646;23.642;2023-04-29T08:08:55;3.15;;;1.90;;
56752;SDS011;42627;42.646;23.642;2023-04-29T08:10:57;5.85;;;2.60;;
56752;SDS011;42627;42.646;23.642;2023-04-29T08:15:08;5.97;;;2.83;;
56752;SDS011;42627;42.646;23.642;2023-04-29T08:17:09;4.90;;;2.13;;
56752;SDS011;42627;42.646;23.642;2023-04-29T08:19:10;3.22;;;1.85;;
56752;SDS011;42627;42.646;23.642;2023-04-29T08:21:11;4.18;;;2.05;;
56752;SDS011;42627;42.646;23.642;2023-04-29T08:28:51;16.15;;;5.40;;
56752;SDS011;42627;42.646;23.642;2023-04-29T08:30:52;4.15;;;1.58;;
56752;SDS011;42627;42.646;23.642;2023-04-29T08:32:54;3.67;;;1.70;;
56752;SDS011;42627;42.646;23.642;2023-04-29T08:34:55;3.63;;;1.50;;
56752;SDS011;42627;42.646;23.642;2023-04-29T08:36:56;4.15;;;1.90;;
56752;SDS011;42627;42.646;23.642;2023-04-29T08:38:57;4.75;;;1.90;;
56752;SDS011;42627;42.646;23.642;2023-04-29T08:40:58;3.45;;;1.60;;
56752;SDS011;42627;42.646;23.642;2023-04-29T08:45:22;4.50;;;1.27;;
56752;SDS011;42627;42.646;23.642;2023-04-29T08:47:24;2.47;;;1.20;;
56752;SDS011;42627;42.646;23.642;2023-04-29T08:49:27;3.42;;;1.48;;
56752;SDS011;42627;42.646;23.642;2023-04-29T08:51:28;3.40;;;1.30;;
56752;SDS011;42627;42.646;23.642;2023-04-29T08:58:39;6.45;;;2.75;;
56752;SDS011;42627;42.646;23.642;2023-04-29T09:00:42;20.05;;;9.80;;
56752;SDS011;42627;42.646;23.642;2023-04-29T09:02:46;2.65;;;1.40;;
56752;SDS011;42627;42.646;23.642;2023-04-29T09:04:52;2.75;;;1.20;;
56752;SDS011;42627;42.646;23.642;2023-04-29T09:06:55;2.65;;;1.23;;
56752;SDS011;42627;42.646;23.642;2023-04-29T09:08:57;3.83;;;1.50;;
56752;SDS011;42627;42.646;23.642;2023-04-29T09:10:58;2.10;;;1.08;;
56752;SDS011;42627;42.646;23.642;2023-04-29T09:13:00;3.13;;;1.10;;
56752;SDS011;42627;42.646;23.642;2023-04-29T09:15:04;2.90;;;1.45;;
56752;SDS011;42627;42.646;23.642;2023-04-29T09:17:06;7.53;;;1.38;;
56752;SDS011;42627;42.646;23.642;2023-04-29T09:19:07;2.33;;;1.08;;
56752;SDS011;42627;42.646;23.642;2023-04-29T09:21:20;1.73;;;1.17;;
56752;SDS011;42627;42.646;23.642;2023-04-29T09:28:29;4.10;;;1.30;;
56752;SDS011;42627;42.646;23.642;2023-04-29T09:30:31;3.75;;;1.30;;
56752;SDS011;42627;42.646;23.642;2023-04-29T09:32:32;1.85;;;0.98;;
56752;SDS011;42627;42.646;23.642;2023-04-29T09:34:34;3.05;;;0.95;;
56752;SDS011;42627;42.646;23.642;2023-04-29T09:38:53;5.03;;;1.55;;
56752;SDS011;42627;42.646;23.642;2023-04-29T09:40:54;1.42;;;1.08;;
56752;SDS011;42627;42.646;23.642;2023-04-29T09:47:16;7.40;;;3.15;;
56752;SDS011;42627;42.646;23.642;2023-04-29T09:49:23;3.40;;;1.42;;
56752;SDS011;42627;42.646;23.642;2023-04-29T09:58:29;2.53;;;1.48;;
56752;SDS011;42627;42.646;23.642;2023-04-29T10:00:32;3.70;;;1.70;;
56752;SDS011;42627;42.646;23.642;2023-04-29T10:02:34;2.83;;;1.13;;
56752;SDS011;42627;42.646;23.642;2023-04-29T10:04:37;2.03;;;1.27;;
56752;SDS011;42627;42.646;23.642;2023-04-29T10:06:40;6.20;;;1.95;;
56752;SDS011;42627;42.646;23.642;2023-04-29T10:08:43;2.45;;;1.33;;
56752;SDS011;42627;42.646;23.642;2023-04-29T10:13:10;3.08;;;1.30;;
56752;SDS011;42627;42.646;23.642;2023-04-29T10:17:49;2.75;;;1.00;;
56752;SDS011;42627;42.646;23.642;2023-04-29T10:20:03;5.93;;;1.10;;
56752;SDS011;42627;42.646;23.642;2023-04-29T10:27:18;2.45;;;0.95;;
56752;SDS011;42627;42.646;23.642;2023-04-29T10:29:24;2.25;;;0.85;;
56752;SDS011;42627;42.646;23.642;2023-04-29T10:31:29;3.45;;;1.13;;
56752;SDS011;42627;42.646;23.642;2023-04-29T10:33:31;1.55;;;0.90;;
56752;SDS011;42627;42.646;23.642;2023-04-29T10:35:32;1.63;;;0.85;;
56752;SDS011;42627;42.646;23.642;2023-04-29T10:37:33;2.20;;;0.85;;
56752;SDS011;42627;42.646;23.642;2023-04-29T10:39:41;3.80;;;1.33;;
56752;SDS011;42627;42.646;23.642;2023-04-29T10:42:15;2.35;;;0.90;;
56752;SDS011;42627;42.646;23.642;2023-04-29T10:44:25;2.47;;;1.10;;
56752;SDS011;42627;42.646;23.642;2023-04-29T10:46:26;7.05;;;0.93;;
56752;SDS011;42627;42.646;23.642;2023-04-29T10:48:26;1.38;;;0.70;;
56752;SDS011;42627;42.646;23.642;2023-04-29T10:58:05;1.55;;;0.77;;
56752;SDS011;42627;42.646;23.642;2023-04-29T11:00:27;3.40;;;1.00;;
56752;SDS011;42627;42.646;23.642;2023-04-29T11:02:29;2.45;;;0.93;;
56752;SDS011;42627;42.646;23.642;2023-04-29T11:04:29;1.50;;;0.88;;
56752;SDS011;42627;42.646;23.642;2023-04-29T11:08:36;1.65;;;0.90;;
56752;SDS011;42627;42.646;23.642;2023-04-29T11:10:42;2.15;;;1.02;;
56752;SDS011;42627;42.646;23.642;2023-04-29T11:12:43;4.47;;;1.67;;
56752;SDS011;42627;42.646;23.642;2023-04-29T11:14:50;5.43;;;1.30;;
56752;SDS011;42627;42.646;23.642;2023-04-29T11:16:52;2.75;;;1.50;;
56752;SDS011;42627;42.646;23.642;2023-04-29T11:19:03;3.05;;;1.25;;
56752;SDS011;42627;42.646;23.642;2023-04-29T11:26:06;5.93;;;1.55;;
56752;SDS011;42627;42.646;23.642;2023-04-29T11:28:07;2.97;;;1.23;;
56752;SDS011;42627;42.646;23.642;2023-04-29T11:30:08;3.80;;;1.10;;
56752;SDS011;42627;42.646;23.642;2023-04-29T11:32:09;4.47;;;1.23;;
56752;SDS011;42627;42.646;23.642;2023-04-29T11:34:09;4.20;;;1.10;;
56752;SDS011;42627;42.646;23.642;2023-04-29T11:36:10;2.15;;;1.20;;
56752;SDS011;42627;42.646;23.642;2023-04-29T11:38:11;4.20;;;1.20;;
56752;SDS011;42627;42.646;23.642;2023-04-29T11:42:22;3.17;;;1.55;;
56752;SDS011;42627;42.646;23.642;2023-04-29T11:44:23;2.20;;;1.08;;
56752;SDS011;42627;42.646;23.642;2023-04-29T11:46:23;3.40;;;1.27;;
56752;SDS011;42627;42.646;23.642;2023-04-29T11:48:25;4.25;;;1.30;;
56752;SDS011;42627;42.646;23.642;2023-04-29T11:50:26;4.72;;;1.30;;
56752;SDS011;42627;42.646;23.642;2023-04-29T11:52:26;3.75;;;1.60;;
56752;SDS011;42627;42.646;23.642;2023-04-29T11:54:28;2.42;;;1.20;;
56752;SDS011;42627;42.646;23.642;2023-04-29T12:01:34;3.22;;;1.30;;
56752;SDS011;42627;42.646;23.642;2023-04-29T12:03:35;4.05;;;1.38;;
56752;SDS011;42627;42.646;23.642;2023-04-29T12:05:35;1.85;;;1.08;;
56752;SDS011;42627;42.646;23.642;2023-04-29T12:07:36;2.70;;;1.30;;
56752;SDS011;42627;42.646;23.642;2023-04-29T12:09:40;3.10;;;1.25;;
56752;SDS011;42627;42.646;23.642;2023-04-29T12:11:42;1.85;;;1.13;;
56752;SDS011;42627;42.646;23.642;2023-04-29T12:13:43;3.10;;;1.33;;
56752;SDS011;42627;42.646;23.642;2023-04-29T12:15:53;2.00;;;1.27;;
56752;SDS011;42627;42.646;23.642;2023-04-29T12:17:54;3.33;;;1.67;;
56752;SDS011;42627;42.646;23.642;2023-04-29T12:19:55;3.33;;;1.30;;
56752;SDS011;42627;42.646;23.642;2023-04-29T12:21:59;2.22;;;1.20;;
56752;SDS011;42627;42.646;23.642;2023-04-29T12:24:02;4.57;;;1.27;;
56752;SDS011;42627;42.646;23.642;2023-04-29T12:29:01;4.70;;;1.35;;
56752;SDS011;42627;42.646;23.642;2023-04-29T12:33:02;5.95;;;1.40;;
56752;SDS011;42627;42.646;23.642;2023-04-29T12:35:04;2.47;;;1.42;;
56752;SDS011;42627;42.646;23.642;2023-04-29T12:37:05;1.92;;;1.30;;
56752;SDS011;42627;42.646;23.642;2023-04-29T12:39:05;5.60;;;1.58;;
56752;SDS011;42627;42.646;23.642;2023-04-29T12:41:09;3.28;;;1.50;;
56752;SDS011;42627;42.646;23.642;2023-04-29T12:43:12;6.50;;;1.60;;
56752;SDS011;42627;42.646;23.642;2023-04-29T12:45:32;3.42;;;1.45;;
56752;SDS011;42627;42.646;23.642;2023-04-29T12:47:33;5.40;;;1.30;;
56752;SDS011;42627;42.646;23.642;2023-04-29T12:49:35;4.60;;;1.52;;
56752;SDS011;42627;42.646;23.642;2023-04-29T12:51:37;3.78;;;1.50;;
56752;SDS011;42627;42.646;23.642;2023-04-29T12:53:38;4.82;;;1.48;;
56752;SDS011;42627;42.646;23.642;2023-04-29T12:55:41;2.63;;;1.50;;
56752;SDS011;42627;42.646;23.642;2023-04-29T12:57:48;2.95;;;1.40;;
56752;SDS011;42627;42.646;23.642;2023-04-29T13:00:00;4.07;;;1.77;;
56752;SDS011;42627;42.646;23.642;2023-04-29T13:02:00;2.83;;;1.20;;
56752;SDS011;42627;42.646;23.642;2023-04-29T13:04:01;2.25;;;1.70;;
56752;SDS011;42627;42.646;23.642;2023-04-29T13:06:06;2.67;;;1.27;;
56752;SDS011;42627;42.646;23.642;2023-04-29T13:08:13;3.42;;;1.50;;
56752;SDS011;42627;42.646;23.642;2023-04-29T13:16:56;5.18;;;1.42;;
56752;SDS011;42627;42.646;23.642;2023-04-29T13:18:57;4.10;;;1.50;;
56752;SDS011;42627;42.646;23.642;2023-04-29T13:20:58;2.80;;;1.30;;
56752;SDS011;42627;42.646;23.642;2023-04-29T13:22:59;2.42;;;1.20;;
56752;SDS011;42627;42.646;23.642;2023-04-29T13:24:59;6.55;;;1.70;;
56752;SDS011;42627;42.646;23.642;2023-04-29T13:27:00;3.88;;;1.40;;
56752;SDS011;42627;42.646;23.642;2023-04-29T13:33:22;4.78;;;1.30;;
56752;SDS011;42627;42.646;23.642;2023-04-29T13:51:31;2.40;;;1.48;;
56752;SDS011;42627;42.646;23.642;2023-04-29T14:00:11;4.18;;;1.63;;
56752;SDS011;42627;42.646;23.642;2023-04-29T14:02:12;3.92;;;1.65;;
56752;SDS011;42627;42.646;23.642;2023-04-29T14:04:13;9.02;;;1.40;;
56752;SDS011;42627;42.646;23.642;2023-04-29T14:06:13;2.20;;;1.40;;
56752;SDS011;42627;42.646;23.642;2023-04-29T14:08:15;5.00;;;1.30;;
56752;SDS011;42627;42.646;23.642;2023-04-29T14:10:15;4.05;;;1.35;;
56752;SDS011;42627;42.646;23.642;2023-04-29T14:12:16;3.50;;;1.23;;
56752;SDS011;42627;42.646;23.642;2023-04-29T14:14:17;3.45;;;1.40;;
56752;SDS011;42627;42.646;23.642;2023-04-29T14:16:17;2.38;;;1.20;;
56752;SDS011;42627;42.646;23.642;2023-04-29T14:18:19;2.45;;;1.20;;
56752;SDS011;42627;42.646;23.642;2023-04-29T14:20:20;3.30;;;1.63;;
56752;SDS011;42627;42.646;23.642;2023-04-29T14:22:20;3.10;;;1.40;;
56752;SDS011;42627;42.646;23.642;2023-04-29T14:24:21;5.70;;;2.10;;
56752;SDS011;42627;42.646;23.642;2023-04-29T14:26:22;3.78;;;1.92;;
56752;SDS011;42627;42.646;23.642;2023-04-29T14:28:23;2.17;;;1.10;;
56752;SDS011;42627;42.646;23.642;2023-04-29T14:30:23;2.05;;;1.23;;
56752;SDS011;42627;42.646;23.642;2023-04-29T14:32:24;3.22;;;1.50;;
56752;SDS011;42627;42.646;23.642;2023-04-29T14:34:24;2.88;;;1.25;;
56752;SDS011;42627;42.646;23.642;2023-04-29T14:36:25;2.75;;;1.42;;
56752;SDS011;42627;42.646;23.642;2023-04-29T14:38:27;3.60;;;1.40;;
56752;SDS011;42627;42.646;23.642;2023-04-29T14:40:27;2.00;;;1.13;;
56752;SDS011;42627;42.646;23.642;2023-04-29T14:42:28;2.40;;;1.25;;
56752;SDS011;42627;42.646;23.642;2023-04-29T14:44:29;2.97;;;1.42;;
56752;SDS011;42627;42.646;23.642;2023-04-29T14:46:30;3.47;;;1.42;;
56752;SDS011;42627;42.646;23.642;2023-04-29T14:48:31;3.70;;;1.60;;
56752;SDS011;42627;42.646;23.642;2023-04-29T14:50:32;2.50;;;1.35;;
56752;SDS011;42627;42.646;23.642;2023-04-29T14:52:32;9.32;;;1.42;;
56752;SDS011;42627;42.646;23.642;2023-04-29T14:54:33;4.13;;;1.40;;
56752;SDS011;42627;42.646;23.642;2023-04-29T14:56:33;26.58;;;2.83;;
56752;SDS011;42627;42.646;23.642;2023-04-29T14:58:36;4.38;;;1.52;;
56752;SDS011;42627;42.646;23.642;2023-04-29T15:00:37;3.95;;;1.30;;
56752;SDS011;42627;42.646;23.642;2023-04-29T15:02:38;4.43;;;1.65;;
56752;SDS011;42627;42.646;23.642;2023-04-29T15:04:40;2.42;;;1.35;;
56752;SDS011;42627;42.646;23.642;2023-04-29T15:06:44;3.40;;;1.50;;
56752;SDS011;42627;42.646;23.642;2023-04-29T15:08:46;1.50;;;1.10;;
56752;SDS011;42627;42.646;23.642;2023-04-29T15:10:47;4.15;;;1.50;;
56752;SDS011;42627;42.646;23.642;2023-04-29T15:12:48;3.03;;;1.50;;
56752;SDS011;42627;42.646;23.642;2023-04-29T15:14:51;2.92;;;1.55;;
56752;SDS011;42627;42.646;23.642;2023-04-29T15:16:52;4.30;;;1.33;;
56752;SDS011;42627;42.646;23.642;2023-04-29T15:18:53;6.47;;;1.95;;
56752;SDS011;42627;42.646;23.642;2023-04-29T15:20:54;3.30;;;1.30;;
56752;SDS011;42627;42.646;23.642;2023-04-29T15:22:54;1.75;;;1.13;;
56752;SDS011;42627;42.646;23.642;2023-04-29T15:24:55;2.22;;;1.30;;
56752;SDS011;42627;42.646;23.642;2023-04-29T15:26:56;2.45;;;1.55;;
56752;SDS011;42627;42.646;23.642;2023-04-29T15:28:57;3.65;;;1.30;;
56752;SDS011;42627;42.646;23.642;2023-04-29T15:30:57;2.85;;;1.27;;